Main page
METAR-TAF:

METAR-TAF

Airports :

Brive–Dordogne Valley Airport

Brive-la-Gaillarde, France

latitude: 45-02-28N, longitude: 001-28-59E, elevation: 311 m

Current weather observation

The report was made 33 minutes ago, at 22:30 UTC
Wind 6 kt from the Southeast
Temperature 8°C
Humidity 81%
Pressure 1018 hPa
Visibility 10 km or more
no clouds below 1500 m and no cumulonimbus

METAR: LFSL 242230Z AUTO 14006KT CAVOK 08/05 Q1018

Time: 00:03 (23:03 UTC)

Forecast

The report was made 6 hours and 3 minutes ago, at 17:00 UTC
Forecast valid from 24 at 18 UTC to 25 at 03 UTC
Wind 6 kt from the South/Southeast
Visibility 10 km or more
no clouds below 1500 m and no cumulonimbus

TAF: LFSL 241700Z 2418/2503 16006KT CAVOK

Weather observations and forecasts of more than 4000 airports (METAR and TAF reports).

The available stations are represented by yellow and red dots on the map.

Hover mouse over dot to see the name of the station.

Then click to see weather observations and forecasts.

To change the map : click on the green buttons with a black cross to zoom in, on the green button with a dash to zoom out, or on the green arrows for adjacent maps.


METAR-TAF: